Time;durP1;ratioP1;P1;durP2;ratioP2;P2;SDS_P1;SDS_P2;PMS_P1;PMS_P2;Temp;Humidity;BMP_temperature;BMP_pressure;BME280_temperature;BME280_humidity;BME280_pressure;Samples;Min_cycle;Max_cycle;Signal;HPM_P1;HPM_P2
2021/07/05 00:01:13;;;;;;;1.43;0.70;;;24.70;60.30;;;;;;4985147;28;20255;-63
2021/07/05 00:03:44;;;;;;;0.50;0.50;;;24.60;60.20;;;;;;4976290;28;20208;-62
2021/07/05 00:06:13;;;;;;;0.73;0.70;;;24.60;60.30;;;;;;4974798;28;20232;-64
2021/07/05 00:08:56;;;;;;;1.00;0.80;;;24.60;60.30;;;;;;4988287;28;20290;-63
2021/07/05 00:11:26;;;;;;;1.53;0.90;;;24.60;60.30;;;;;;4983045;28;20866;-63
2021/07/05 00:13:56;;;;;;;2.63;0.80;;;24.60;60.30;;;;;;4974969;28;20212;-63
2021/07/05 00:16:27;;;;;;;0.80;0.70;;;24.60;60.30;;;;;;4985047;28;20188;-64
2021/07/05 00:18:56;;;;;;;1.17;0.80;;;24.60;60.30;;;;;;4980596;28;20270;-63
2021/07/05 00:21:25;;;;;;;1.30;0.70;;;24.60;60.30;;;;;;4987364;28;20209;-63
2021/07/05 00:23:55;;;;;;;0.97;0.80;;;24.60;60.30;;;;;;4984881;28;20270;-63
2021/07/05 00:26:28;;;;;;;0.70;0.60;;;24.60;60.30;;;;;;4978955;28;20215;-63
2021/07/05 00:28:58;;;;;;;0.80;0.80;;;24.60;60.30;;;;;;4978974;28;20214;-64
2021/07/05 00:31:27;;;;;;;0.97;0.60;;;24.60;60.40;;;;;;4973478;28;20653;-64
2021/07/05 00:33:56;;;;;;;1.23;0.70;;;24.50;60.30;;;;;;4986964;28;20726;-64
2021/07/05 00:36:26;;;;;;;0.80;0.80;;;24.60;60.40;;;;;;4977423;28;20232;-64
2021/07/05 00:38:53;;;;;;;1.40;0.70;;;24.50;60.30;;;;;;4988787;28;20243;-63
2021/07/05 00:41:22;;;;;;;1.13;0.67;;;24.50;60.30;;;;;;4984363;28;20225;-63
2021/07/05 00:43:52;;;;;;;1.53;0.70;;;24.50;60.40;;;;;;4985434;28;20224;-63
2021/07/05 00:46:24;;;;;;;0.83;0.70;;;24.50;60.40;;;;;;4983644;28;20284;-64
2021/07/05 00:48:51;;;;;;;1.33;0.73;;;24.50;60.40;;;;;;4980321;28;20200;-63
2021/07/05 00:51:20;;;;;;;0.97;0.87;;;24.50;60.40;;;;;;4974050;28;20220;-64
2021/07/05 00:53:52;;;;;;;1.03;0.80;;;24.40;60.30;;;;;;4985154;28;20259;-63
2021/07/05 00:56:22;;;;;;;2.17;0.70;;;24.40;60.40;;;;;;4981915;28;20219;-63
2021/07/05 00:58:51;;;;;;;0.93;0.67;;;24.40;60.50;;;;;;4977988;28;20205;-64
2021/07/05 01:01:25;;;;;;;0.60;0.60;;;24.40;60.40;;;;;;4987029;28;20849;-64
2021/07/05 01:03:55;;;;;;;1.00;0.80;;;24.40;60.40;;;;;;4986105;28;20197;-63
2021/07/05 01:06:28;;;;;;;0.57;0.57;;;24.40;60.50;;;;;;4978874;28;20239;-64
2021/07/05 01:08:57;;;;;;;0.73;0.70;;;24.40;60.40;;;;;;4987014;28;20669;-63
2021/07/05 01:11:27;;;;;;;0.57;0.57;;;24.40;60.40;;;;;;4982182;28;20212;-63
2021/07/05 01:13:57;;;;;;;1.50;0.60;;;24.40;60.40;;;;;;4980774;28;20212;-63
2021/07/05 01:16:26;;;;;;;0.70;0.70;;;24.40;60.40;;;;;;4988555;28;20188;-63
2021/07/05 01:18:53;;;;;;;2.03;0.70;;;24.40;61.00;;;;;;4985973;28;20250;-63
2021/07/05 01:21:27;;;;;;;2.30;0.60;;;24.40;60.50;;;;;;4962585;28;20213;-64
2021/07/05 01:23:57;;;;;;;0.70;0.60;;;24.40;60.40;;;;;;4988685;28;20634;-63
2021/07/05 01:26:25;;;;;;;0.70;0.63;;;24.40;60.40;;;;;;4983807;28;20200;-63
2021/07/05 01:28:53;;;;;;;0.60;0.60;;;24.40;60.40;;;;;;4986891;28;20238;-63
2021/07/05 01:31:22;;;;;;;0.80;0.77;;;24.30;60.50;;;;;;4981187;28;20663;-63
2021/07/05 01:33:52;;;;;;;0.53;0.50;;;24.30;60.50;;;;;;4980810;28;20200;-63
2021/07/05 01:36:22;;;;;;;1.57;0.70;;;24.30;60.50;;;;;;4988994;28;20248;-63
2021/07/05 01:38:51;;;;;;;5.80;0.93;;;24.40;60.50;;;;;;4983002;28;20212;-63
2021/07/05 01:41:22;;;;;;;1.53;0.80;;;24.30;60.40;;;;;;4979803;28;20232;-64
2021/07/05 01:43:52;;;;;;;1.13;1.00;;;24.30;60.40;;;;;;4988451;28;20228;-64
2021/07/05 01:46:23;;;;;;;1.33;1.00;;;24.30;60.50;;;;;;4985187;28;20201;-63
2021/07/05 01:48:54;;;;;;;1.63;1.20;;;24.30;60.50;;;;;;4981490;28;20197;-64
2021/07/05 01:51:22;;;;;;;1.73;1.10;;;24.30;60.50;;;;;;4990029;28;20197;-62
2021/07/05 01:53:55;;;;;;;1.43;0.93;;;24.30;60.50;;;;;;4989164;28;20213;-63
2021/07/05 01:56:26;;;;;;;3.13;1.13;;;24.30;60.50;;;;;;4986534;28;20235;-63
2021/07/05 01:58:56;;;;;;;1.33;1.00;;;24.30;60.50;;;;;;4998317;28;20208;-63
2021/07/05 02:01:26;;;;;;;1.00;0.90;;;24.30;60.50;;;;;;5004749;28;20224;-63
2021/07/05 02:03:58;;;;;;;1.23;1.10;;;24.30;60.50;;;;;;5005131;28;20211;-63
2021/07/05 02:06:27;;;;;;;1.50;1.00;;;24.30;60.50;;;;;;5001029;28;20196;-63
2021/07/05 02:08:58;;;;;;;2.83;1.00;;;24.30;60.40;;;;;;4991243;28;20280;-63
2021/07/05 02:11:39;;;;;;;1.17;0.90;;;24.30;60.40;;;;;;4990764;28;20200;-63
2021/07/05 02:14:07;;;;;;;1.07;0.80;;;24.30;60.40;;;;;;4980150;28;20208;-63
2021/07/05 02:16:35;;;;;;;1.13;0.90;;;24.30;60.50;;;;;;5001194;28;20223;-63
2021/07/05 02:19:07;;;;;;;2.97;1.00;;;24.30;60.40;;;;;;4993548;28;20201;-63
2021/07/05 02:21:35;;;;;;;1.57;1.10;;;24.30;60.50;;;;;;4982259;28;20216;-64
2021/07/05 02:24:05;;;;;;;1.07;0.93;;;24.30;60.40;;;;;;4988847;28;20557;-63
2021/07/05 02:26:34;;;;;;;0.80;0.80;;;24.30;60.50;;;;;;4988031;28;20213;-63
2021/07/05 02:29:04;;;;;;;1.00;0.80;;;24.30;60.50;;;;;;4984823;28;20205;-63
2021/07/05 02:31:45;;;;;;;1.57;1.00;;;24.30;60.40;;;;;;4990573;28;20381;-63
2021/07/05 02:34:14;;;;;;;1.07;0.80;;;24.30;60.40;;;;;;4986322;28;20629;-63
2021/07/05 02:36:43;;;;;;;2.20;0.90;;;24.30;60.40;;;;;;4987327;28;20331;-64
2021/07/05 02:39:11;;;;;;;1.10;0.80;;;24.30;60.40;;;;;;4981353;28;20190;-64
2021/07/05 02:41:41;;;;;;;0.93;0.93;;;24.20;61.00;;;;;;4984349;28;20224;-63
2021/07/05 02:44:10;;;;;;;1.47;0.80;;;24.20;60.30;;;;;;4987141;28;20196;-63
2021/07/05 02:46:42;;;;;;;1.00;0.70;;;24.20;61.00;;;;;;4983500;28;20205;-63
2021/07/05 02:49:13;;;;;;;1.50;1.10;;;24.20;60.40;;;;;;4987847;28;20211;-64
2021/07/05 02:51:42;;;;;;;1.73;0.90;;;24.20;60.30;;;;;;4987638;28;20199;-64
2021/07/05 02:54:13;;;;;;;1.43;0.90;;;24.20;60.30;;;;;;4989476;28;20200;-64
2021/07/05 02:56:42;;;;;;;1.23;0.90;;;24.20;60.30;;;;;;4986669;28;20250;-64
2021/07/05 02:59:14;;;;;;;1.40;0.80;;;24.20;60.30;;;;;;4988992;28;20200;-63
2021/07/05 03:01:46;;;;;;;1.47;0.77;;;24.20;60.30;;;;;;4981779;28;20243;-63
2021/07/05 03:04:15;;;;;;;2.43;1.00;;;24.20;60.20;;;;;;4980635;28;20205;-63
2021/07/05 03:06:43;;;;;;;2.43;0.90;;;24.20;60.20;;;;;;4984480;28;20196;-63
2021/07/05 03:09:12;;;;;;;1.40;0.93;;;24.20;60.10;;;;;;4986744;28;20215;-63
2021/07/05 03:11:40;;;;;;;0.70;0.70;;;24.20;60.20;;;;;;4979329;28;20844;-63
2021/07/05 03:14:13;;;;;;;2.40;0.90;;;24.20;60.10;;;;;;4988785;28;20213;-64
2021/07/05 03:16:44;;;;;;;0.80;0.80;;;24.20;60.00;;;;;;4987277;28;20208;-64
2021/07/05 03:19:14;;;;;;;1.00;0.90;;;24.20;60.00;;;;;;4986079;28;20209;-63
2021/07/05 03:21:49;;;;;;;0.97;0.80;;;24.20;60.00;;;;;;4988780;28;20228;-63
2021/07/05 03:24:17;;;;;;;1.67;1.00;;;24.20;59.90;;;;;;4982807;28;20511;-63
2021/07/05 03:26:53;;;;;;;1.37;1.10;;;24.20;60.00;;;;;;4982114;28;20653;-63
2021/07/05 03:29:21;;;;;;;1.63;0.90;;;24.20;59.90;;;;;;4974848;28;20332;-62
2021/07/05 03:31:50;;;;;;;2.83;1.10;;;24.20;59.80;;;;;;4985999;28;20228;-64
2021/07/05 03:34:22;;;;;;;2.70;0.83;;;24.20;59.80;;;;;;4961496;28;20579;-64
2021/07/05 03:36:53;;;;;;;1.50;0.90;;;24.20;59.70;;;;;;4979379;28;20232;-63
2021/07/05 03:39:22;;;;;;;1.00;0.87;;;24.20;59.50;;;;;;4979330;28;20207;-63
2021/07/05 03:41:50;;;;;;;1.37;0.93;;;24.20;59.50;;;;;;4977667;28;20215;-64
2021/07/05 03:44:17;;;;;;;3.23;1.20;;;24.30;59.40;;;;;;4979391;28;20189;-63
2021/07/05 03:46:46;;;;;;;2.33;1.20;;;24.20;59.20;;;;;;4976018;28;20204;-62
2021/07/05 03:49:15;;;;;;;4.17;1.23;;;24.30;58.90;;;;;;4990515;28;20188;-62
2021/07/05 03:51:49;;;;;;;2.13;0.90;;;24.30;59.00;;;;;;4985120;28;20208;-62
2021/07/05 03:54:19;;;;;;;2.20;1.30;;;24.30;58.80;;;;;;4981338;28;20209;-62
2021/07/05 03:56:58;;;;;;;2.50;1.23;;;24.20;58.70;;;;;;4996505;28;20680;-61
2021/07/05 03:59:25;;;;;;;3.73;1.20;;;24.30;58.70;;;;;;4987504;28;20548;-61
2021/07/05 04:01:54;;;;;;;3.33;1.13;;;24.20;58.60;;;;;;4992306;28;20697;-65
2021/07/05 04:04:25;;;;;;;2.20;1.10;;;24.20;58.50;;;;;;4984356;28;20201;-64
2021/07/05 04:06:54;;;;;;;1.30;0.90;;;24.20;58.40;;;;;;4988837;28;20678;-63
2021/07/05 04:09:22;;;;;;;1.27;1.10;;;24.20;58.30;;;;;;4991368;28;20200;-63
2021/07/05 04:11:54;;;;;;;2.50;1.40;;;24.20;58.20;;;;;;4994851;28;20815;-63
2021/07/05 04:14:22;;;;;;;2.43;0.93;;;24.20;58.10;;;;;;4984812;28;20312;-63
2021/07/05 04:16:53;;;;;;;2.43;1.00;;;24.20;58.10;;;;;;4978415;28;20205;-63
2021/07/05 04:19:22;;;;;;;1.83;0.80;;;24.10;58.00;;;;;;4993416;28;20209;-64
2021/07/05 04:21:51;;;;;;;1.90;1.20;;;24.10;58.00;;;;;;4988645;28;20834;-64
2021/07/05 04:24:21;;;;;;;1.80;1.17;;;24.10;57.90;;;;;;4989490;28;20193;-64
2021/07/05 04:26:50;;;;;;;1.30;1.00;;;24.10;57.90;;;;;;4992203;28;20724;-63
2021/07/05 04:29:21;;;;;;;2.53;1.57;;;24.10;57.90;;;;;;4989136;28;20207;-63
2021/07/05 04:31:49;;;;;;;1.80;1.00;;;24.10;57.80;;;;;;4986736;28;20250;-64
2021/07/05 04:34:17;;;;;;;3.17;1.20;;;24.00;57.80;;;;;;4975705;28;20208;-63
2021/07/05 04:36:44;;;;;;;2.57;1.30;;;24.00;57.70;;;;;;4990654;28;20739;-63
2021/07/05 04:39:13;;;;;;;3.57;1.37;;;24.00;57.70;;;;;;4984877;28;20223;-63
2021/07/05 04:41:43;;;;;;;1.63;1.30;;;24.00;57.80;;;;;;4991813;28;20227;-62
2021/07/05 04:44:13;;;;;;;3.43;1.03;;;24.00;57.80;;;;;;4987398;28;20203;-63
2021/07/05 04:46:49;;;;;;;5.57;1.30;;;23.90;57.70;;;;;;4977719;28;20207;-65
2021/07/05 04:49:19;;;;;;;1.80;1.20;;;23.90;57.70;;;;;;4992773;28;20208;-64
2021/07/05 04:51:49;;;;;;;2.80;1.37;;;23.90;57.50;;;;;;4989472;28;20208;-63
2021/07/05 04:54:19;;;;;;;3.47;1.50;;;23.90;57.40;;;;;;4978719;28;20208;-63
2021/07/05 04:56:47;;;;;;;4.87;1.67;;;23.90;57.20;;;;;;4991484;28;20217;-63
2021/07/05 04:59:31;;;;;;;4.33;2.10;;;23.80;57.00;;;;;;4990640;28;20283;-62
2021/07/05 05:02:04;;;;;;;2.60;1.90;;;23.80;56.90;;;;;;4978238;28;20232;-65
2021/07/05 05:04:33;;;;;;;41.40;11.70;;;23.80;57.00;;;;;;4993182;28;20271;-64
2021/07/05 05:07:02;;;;;;;41.90;12.63;;;23.80;58.20;;;;;;4987947;28;20208;-62
2021/07/05 05:09:32;;;;;;;52.30;16.93;;;23.80;58.30;;;;;;4987928;28;20701;-62
2021/07/05 05:12:04;;;;;;;68.33;18.23;;;23.80;58.30;;;;;;4987207;28;20208;-63
2021/07/05 05:14:34;;;;;;;50.77;15.43;;;23.80;58.60;;;;;;4991013;28;20270;-63
2021/07/05 05:17:03;;;;;;;54.20;15.53;;;23.80;58.50;;;;;;4990439;28;20223;-64
2021/07/05 05:19:34;;;;;;;55.17;15.53;;;23.80;58.50;;;;;;4986015;28;20220;-63
2021/07/05 05:22:08;;;;;;;55.13;16.20;;;23.80;58.70;;;;;;4979302;28;20293;-64
2021/07/05 05:24:36;;;;;;;51.93;14.93;;;23.90;58.90;;;;;;4992239;28;20216;-63
2021/07/05 05:27:04;;;;;;;51.20;14.70;;;23.80;58.90;;;;;;4991199;28;20208;-62
2021/07/05 05:29:35;;;;;;;44.17;13.83;;;23.90;59.00;;;;;;4989501;28;20204;-62
2021/07/05 05:32:04;;;;;;;46.27;13.43;;;23.90;59.00;;;;;;4983267;28;20212;-62
2021/07/05 05:34:34;;;;;;;35.17;11.83;;;23.90;59.00;;;;;;4986216;28;20215;-62
2021/07/05 05:37:02;;;;;;;29.57;9.97;;;23.90;58.90;;;;;;4982257;28;20240;-62
2021/07/05 05:39:30;;;;;;;31.77;10.23;;;23.90;58.90;;;;;;4962889;28;20255;-61
2021/07/05 05:42:01;;;;;;;32.10;8.87;;;23.90;58.90;;;;;;4988634;28;20279;-63
2021/07/05 05:44:31;;;;;;;27.77;8.70;;;23.90;58.90;;;;;;4988715;28;20287;-63
2021/07/05 05:46:59;;;;;;;23.97;7.77;;;23.90;58.80;;;;;;4987051;28;20207;-62
2021/07/05 05:49:31;;;;;;;24.50;7.33;;;23.90;58.80;;;;;;4990849;28;20201;-62
2021/07/05 05:52:01;;;;;;;23.33;7.80;;;23.90;58.70;;;;;;4988530;28;20708;-63
2021/07/05 05:54:33;;;;;;;17.10;6.13;;;23.90;58.70;;;;;;4988619;28;20204;-63
2021/07/05 05:57:00;;;;;;;18.60;6.83;;;23.90;58.60;;;;;;4991413;28;20211;-62
2021/07/05 05:59:30;;;;;;;19.10;6.03;;;23.90;58.60;;;;;;4988435;28;20665;-62
2021/07/05 06:01:58;;;;;;;16.67;5.53;;;23.90;58.60;;;;;;4979305;28;20220;-64
2021/07/05 06:04:28;;;;;;;12.03;5.00;;;23.90;58.60;;;;;;4989691;28;20278;-64
2021/07/05 06:06:58;;;;;;;10.60;4.73;;;23.90;58.50;;;;;;4987381;28;20691;-64
2021/07/05 06:09:28;;;;;;;10.43;4.43;;;23.90;58.50;;;;;;4987406;28;20200;-63
2021/07/05 06:11:57;;;;;;;11.13;4.03;;;23.90;58.40;;;;;;4983157;28;20209;-63
2021/07/05 06:14:25;;;;;;;9.07;3.80;;;23.90;58.50;;;;;;4984661;28;20204;-63
2021/07/05 06:16:57;;;;;;;9.00;3.77;;;23.90;58.50;;;;;;4989541;28;20196;-63
2021/07/05 06:19:26;;;;;;;10.97;3.83;;;23.90;58.50;;;;;;4989292;28;20204;-64
2021/07/05 06:21:57;;;;;;;8.80;3.80;;;23.90;58.60;;;;;;4990867;28;20215;-63
2021/07/05 06:24:28;;;;;;;8.57;3.67;;;23.90;58.70;;;;;;4988473;28;20643;-62
2021/07/05 06:27:01;;;;;;;9.73;3.20;;;23.90;58.90;;;;;;4986177;28;20208;-62
2021/07/05 06:29:30;;;;;;;11.57;2.87;;;23.90;59.20;;;;;;4988211;28;20204;-61
2021/07/05 06:31:57;;;;;;;5.27;1.93;;;24.00;59.20;;;;;;4985113;28;20241;-61
2021/07/05 06:34:24;;;;;;;4.80;2.00;;;23.90;58.80;;;;;;4983941;28;20236;-61
2021/07/05 06:36:51;;;;;;;6.03;1.83;;;23.90;58.40;;;;;;4983864;28;20606;-61
2021/07/05 06:39:21;;;;;;;4.30;2.20;;;24.00;58.10;;;;;;4987647;28;20607;-62
2021/07/05 06:41:48;;;;;;;3.60;2.10;;;24.00;57.90;;;;;;4990082;28;20220;-61
2021/07/05 06:44:18;;;;;;;4.50;2.00;;;23.90;57.70;;;;;;4984592;28;20201;-62
2021/07/05 06:46:45;;;;;;;4.37;2.17;;;24.00;57.60;;;;;;4980967;28;20209;-63
2021/07/05 06:49:17;;;;;;;5.40;2.00;;;23.90;57.50;;;;;;4989236;28;20587;-63
2021/07/05 06:51:49;;;;;;;4.50;1.93;;;24.00;57.60;;;;;;4984893;28;20209;-63
2021/07/05 06:54:18;;;;;;;5.33;2.00;;;23.90;57.50;;;;;;4988020;28;20277;-63
2021/07/05 06:56:45;;;;;;;5.23;2.20;;;23.90;57.90;;;;;;4986227;28;20334;-62
2021/07/05 06:59:14;;;;;;;5.13;2.20;;;23.90;57.90;;;;;;4977271;28;20716;-61
2021/07/05 07:01:45;;;;;;;3.77;2.07;;;23.90;57.90;;;;;;4976282;28;20236;-63
2021/07/05 07:04:14;;;;;;;2.60;1.77;;;23.90;57.80;;;;;;4981268;28;20674;-63
2021/07/05 07:06:41;;;;;;;3.43;2.30;;;23.90;57.90;;;;;;4980128;28;20192;-62
2021/07/05 07:09:11;;;;;;;4.83;1.90;;;23.90;57.80;;;;;;4987924;28;20208;-62
2021/07/05 07:11:37;;;;;;;2.70;1.77;;;23.90;57.90;;;;;;4982128;28;20221;-61
2021/07/05 07:14:08;;;;;;;5.20;2.00;;;23.90;57.90;;;;;;4979842;28;20690;-61
2021/07/05 07:16:42;;;;;;;2.93;1.77;;;23.90;57.90;;;;;;4981698;28;20638;-63
2021/07/05 07:19:18;;;;;;;3.70;1.87;;;23.90;58.20;;;;;;4985104;28;20216;-63
2021/07/05 07:21:53;;;;;;;2.33;1.80;;;23.90;58.00;;;;;;4983861;28;20232;-62
2021/07/05 07:24:20;;;;;;;2.63;1.93;;;23.90;58.00;;;;;;4988412;28;20202;-62
2021/07/05 07:26:50;;;;;;;5.57;1.90;;;23.90;58.10;;;;;;4986639;28;20274;-62
2021/07/05 07:29:19;;;;;;;5.67;2.23;;;23.90;58.10;;;;;;4984696;28;20626;-62
2021/07/05 07:31:46;;;;;;;3.80;1.87;;;23.90;58.10;;;;;;4978977;28;20208;-64
2021/07/05 07:34:13;;;;;;;3.13;1.70;;;23.90;58.10;;;;;;4977149;28;20225;-63
2021/07/05 07:36:42;;;;;;;4.20;1.90;;;23.90;58.30;;;;;;4982585;28;20893;-63
2021/07/05 07:39:14;;;;;;;4.13;1.83;;;23.90;58.30;;;;;;4984590;28;20192;-63
2021/07/05 07:41:41;;;;;;;4.77;2.13;;;23.90;58.70;;;;;;4981119;28;20220;-63
2021/07/05 07:44:08;;;;;;;5.37;2.20;;;23.90;58.50;;;;;;4984838;28;20232;-62
2021/07/05 07:46:35;;;;;;;5.63;2.47;;;23.90;58.50;;;;;;4981664;28;20217;-62
2021/07/05 07:49:03;;;;;;;4.97;2.43;;;23.90;58.50;;;;;;4983586;28;20193;-62
2021/07/05 07:51:30;;;;;;;5.43;2.00;;;23.90;58.60;;;;;;4987244;28;20204;-62
2021/07/05 07:53:58;;;;;;;5.73;1.87;;;23.90;58.70;;;;;;4990041;28;20447;-63
2021/07/05 07:56:26;;;;;;;3.07;1.90;;;23.90;58.80;;;;;;4988359;28;21652;-62
2021/07/05 07:58:53;;;;;;;6.70;2.30;;;23.90;58.80;;;;;;4979848;28;20200;-62
2021/07/05 08:01:20;;;;;;;5.67;2.00;;;23.90;58.90;;;;;;4979855;28;20304;-63
2021/07/05 08:03:47;;;;;;;3.27;1.80;;;23.90;58.90;;;;;;4981874;28;20250;-64
2021/07/05 08:06:15;;;;;;;4.13;2.10;;;23.90;59.00;;;;;;4976958;28;20197;-64
2021/07/05 08:08:41;;;;;;;8.40;2.30;;;23.90;59.00;;;;;;4985977;28;20216;-63
2021/07/05 08:11:08;;;;;;;8.80;2.40;;;23.90;59.60;;;;;;4986263;28;20211;-63
2021/07/05 08:13:35;;;;;;;5.93;2.30;;;23.90;60.00;;;;;;4974773;28;20216;-63
2021/07/05 08:16:02;;;;;;;5.57;2.20;;;23.90;60.30;;;;;;4986767;28;20254;-64
2021/07/05 08:18:30;;;;;;;5.30;2.50;;;23.90;61.00;;;;;;4978982;28;20211;-63
2021/07/05 08:21:00;;;;;;;7.23;2.33;;;23.80;62.40;;;;;;4984076;28;20288;-63
2021/07/05 08:23:26;;;;;;;5.37;2.17;;;23.80;62.80;;;;;;4986085;28;20246;-63
2021/07/05 08:25:53;;;;;;;6.03;2.57;;;23.80;62.80;;;;;;4988187;28;20303;-62
2021/07/05 08:28:23;;;;;;;4.70;2.50;;;23.80;62.90;;;;;;4985053;28;20729;-61
2021/07/05 08:30:54;;;;;;;5.27;2.10;;;23.80;62.90;;;;;;4986340;28;20197;-63
2021/07/05 08:33:21;;;;;;;5.20;2.03;;;23.80;63.10;;;;;;4985537;28;20530;-63
2021/07/05 08:35:48;;;;;;;5.33;2.30;;;23.90;63.30;;;;;;4979157;28;20205;-64
2021/07/05 08:38:15;;;;;;;6.30;2.53;;;23.90;62.90;;;;;;4978957;28;20889;-63
2021/07/05 08:40:43;;;;;;;8.37;2.70;;;23.90;62.80;;;;;;4977489;28;20212;-63
2021/07/05 08:43:10;;;;;;;4.23;2.30;;;23.90;62.60;;;;;;4976282;28;20221;-63
2021/07/05 08:45:39;;;;;;;4.80;2.40;;;23.90;62.50;;;;;;4983576;28;20205;-63
2021/07/05 08:48:09;;;;;;;3.03;2.00;;;23.90;62.10;;;;;;4978327;28;20205;-63
2021/07/05 08:50:48;;;;;;;4.50;2.50;;;23.90;61.90;;;;;;4985558;28;20209;-62
2021/07/05 08:53:14;;;;;;;4.23;2.10;;;23.90;62.10;;;;;;4984025;28;20192;-63
2021/07/05 08:55:43;;;;;;;3.83;2.40;;;23.90;61.90;;;;;;4985091;28;20217;-63
2021/07/05 08:58:10;;;;;;;3.77;2.30;;;23.90;61.60;;;;;;4982443;28;20226;-63
2021/07/05 09:00:43;;;;;;;6.60;2.50;;;23.90;61.50;;;;;;4985117;28;20212;-63
2021/07/05 09:03:10;;;;;;;4.77;2.50;;;23.90;61.50;;;;;;4983915;28;20634;-63
2021/07/05 09:05:37;;;;;;;5.60;2.50;;;23.90;61.40;;;;;;4987278;28;20213;-63
2021/07/05 09:08:09;;;;;;;3.37;2.33;;;23.90;61.40;;;;;;4987863;28;20204;-63
2021/07/05 09:10:52;;;;;;;3.60;2.20;;;23.90;61.70;;;;;;4982802;28;20215;-63
2021/07/05 09:13:23;;;;;;;5.30;2.43;;;23.90;61.60;;;;;;4983285;28;20742;-64
2021/07/05 09:15:53;;;;;;;2.80;1.90;;;23.90;61.60;;;;;;4983812;28;20209;-64
2021/07/05 09:18:46;;;;;;;5.30;2.20;;;23.90;61.60;;;;;;4981017;28;20242;-64
2021/07/05 09:21:20;;;;;;;4.47;2.87;;;23.90;61.60;;;;;;4986621;28;20200;-61
2021/07/05 09:24:07;;;;;;;5.10;2.53;;;23.90;61.60;;;;;;4981879;28;20232;-62
2021/07/05 09:26:45;;;;;;;3.53;2.60;;;23.90;61.60;;;;;;4987013;28;20223;-61
2021/07/05 09:29:22;;;;;;;4.37;2.60;;;23.80;61.40;;;;;;4987623;28;20196;-62
2021/07/05 09:31:51;;;;;;;3.90;1.70;;;23.90;61.90;;;;;;4982124;28;20211;-63
2021/07/05 09:34:32;;;;;;;5.10;2.30;;;23.90;62.20;;;;;;4983632;28;20208;-63
2021/07/05 09:37:22;;;;;;;3.93;1.83;;;23.90;62.20;;;;;;4987906;28;20228;-61
2021/07/05 09:40:01;;;;;;;3.83;2.07;;;23.90;62.00;;;;;;4990284;28;20185;-61
2021/07/05 09:42:47;;;;;;;4.67;2.00;;;23.90;61.80;;;;;;4986829;28;20689;-63
2021/07/05 09:45:23;;;;;;;4.00;1.90;;;23.90;61.60;;;;;;4981546;28;20428;-63
2021/07/05 09:48:16;;;;;;;3.80;1.90;;;23.90;61.80;;;;;;4986222;28;20201;-62
2021/07/05 09:50:47;;;;;;;5.03;2.20;;;23.90;61.40;;;;;;4989959;28;20223;-61
2021/07/05 09:53:44;;;;;;;3.20;1.87;;;23.90;61.40;;;;;;4988264;28;20201;-61
2021/07/05 09:56:29;;;;;;;4.37;2.13;;;23.90;60.80;;;;;;4980339;28;20220;-63
2021/07/05 09:59:02;;;;;;;4.63;2.20;;;23.90;60.90;;;;;;4985768;28;20188;-63
2021/07/05 10:01:48;;;;;;;4.97;1.80;;;23.80;60.80;;;;;;4988417;28;20216;-61
2021/07/05 10:04:32;;;;;;;2.10;1.87;;;23.90;60.70;;;;;;4990125;28;20207;-61
2021/07/05 10:07:01;;;;;;;3.93;1.90;;;23.90;60.80;;;;;;4985696;28;20223;-61
2021/07/05 10:09:38;;;;;;;2.83;1.90;;;23.90;61.10;;;;;;4981958;28;20212;-61
2021/07/05 10:12:29;;;;;;;4.60;1.83;;;23.90;61.10;;;;;;4985638;28;20687;-63
2021/07/05 10:15:09;;;;;;;2.47;1.60;;;23.90;60.90;;;;;;4982269;28;20572;-63
2021/07/05 10:17:42;;;;;;;3.77;1.87;;;23.90;60.80;;;;;;4980970;28;20209;-62
2021/07/05 10:20:16;;;;;;;3.70;2.00;;;23.90;61.40;;;;;;4983061;28;20266;-62
2021/07/05 10:22:45;;;;;;;5.90;2.20;;;23.90;60.90;;;;;;4990283;28;20548;-61
2021/07/05 10:25:13;;;;;;;2.60;1.57;;;23.90;60.90;;;;;;4987436;28;20201;-62
2021/07/05 10:27:40;;;;;;;4.23;1.87;;;23.80;61.40;;;;;;4983857;28;20260;-61
2021/07/05 10:30:10;;;;;;;3.50;1.73;;;23.80;61.80;;;;;;4990055;28;20598;-61
2021/07/05 10:32:39;;;;;;;3.70;1.57;;;23.80;61.70;;;;;;4985265;28;20219;-61
2021/07/05 10:35:08;;;;;;;2.77;1.60;;;23.90;61.40;;;;;;4983278;28;20274;-62
2021/07/05 10:37:56;;;;;;;4.47;1.80;;;23.90;61.10;;;;;;4988162;28;20246;-61
2021/07/05 10:40:26;;;;;;;2.90;1.53;;;23.90;61.10;;;;;;4989666;28;20700;-62
2021/07/05 10:42:57;;;;;;;3.03;1.30;;;23.90;61.10;;;;;;4981618;28;20224;-63
2021/07/05 10:45:40;;;;;;;3.83;1.60;;;23.90;61.20;;;;;;4988611;28;20650;-62
2021/07/05 10:48:08;;;;;;;6.00;1.37;;;23.90;61.20;;;;;;4984934;28;20193;-62
2021/07/05 10:50:42;;;;;;;3.73;1.30;;;23.90;61.30;;;;;;4980874;28;20208;-62
2021/07/05 10:53:11;;;;;;;2.50;1.40;;;23.90;61.30;;;;;;4980971;28;20332;-64
2021/07/05 10:55:40;;;;;;;3.60;1.20;;;24.00;61.60;;;;;;4982391;28;20204;-65
2021/07/05 10:58:34;;;;;;;4.07;1.40;;;24.00;62.00;;;;;;4978518;28;20570;-62
2021/07/05 11:01:05;;;;;;;7.10;1.30;;;24.00;61.60;;;;;;4981531;28;20361;-62
2021/07/05 11:03:38;;;;;;;5.13;1.53;;;24.00;61.50;;;;;;4982145;28;20229;-62
2021/07/05 11:06:26;;;;;;;5.43;1.33;;;24.00;61.60;;;;;;4984532;28;20209;-61
2021/07/05 11:08:53;;;;;;;2.07;1.27;;;24.00;61.20;;;;;;4983665;28;20231;-61
2021/07/05 11:11:26;;;;;;;2.00;1.37;;;24.00;60.90;;;;;;4987355;28;20200;-63
2021/07/05 11:14:17;;;;;;;1.47;1.20;;;24.10;61.10;;;;;;4978557;28;20208;-64
2021/07/05 11:16:53;;;;;;;4.40;1.03;;;24.10;61.10;;;;;;4981260;28;20200;-65
2021/07/05 11:19:30;;;;;;;1.97;1.20;;;24.10;60.50;;;;;;4985331;28;20211;-64
2021/07/05 11:22:03;;;;;;;2.53;1.20;;;24.10;61.30;;;;;;4977714;28;20224;-65
2021/07/05 11:24:41;;;;;;;2.00;1.13;;;24.10;60.70;;;;;;4988387;28;20243;-65
2021/07/05 11:27:43;;;;;;;2.23;1.10;;;24.20;61.00;;;;;;4984782;28;20653;-62
2021/07/05 11:30:13;;;;;;;1.97;1.03;;;24.20;61.70;;;;;;4986402;28;20210;-62
2021/07/05 11:32:42;;;;;;;5.50;1.23;;;24.20;61.30;;;;;;4983957;28;20207;-61
2021/07/05 11:35:43;;;;;;;6.37;1.30;;;24.20;60.70;;;;;;4981789;28;20286;-62
2021/07/05 11:38:11;;;;;;;3.77;1.40;;;24.20;60.40;;;;;;4981627;28;20244;-64
2021/07/05 11:40:53;;;;;;;2.63;1.30;;;24.20;60.50;;;;;;4977619;28;20216;-63
2021/07/05 11:43:48;;;;;;;2.37;1.20;;;24.30;60.40;;;;;;4987998;28;20208;-62
2021/07/05 11:46:42;;;;;;;2.87;1.37;;;24.30;60.40;;;;;;4982777;28;20552;-62
2021/07/05 11:49:24;;;;;;;2.63;1.10;;;24.30;60.30;;;;;;4983904;28;20208;-63
2021/07/05 11:51:57;;;;;;;1.00;0.90;;;24.30;59.70;;;;;;4984888;28;20197;-62
2021/07/05 11:54:30;;;;;;;2.33;1.20;;;24.30;59.50;;;;;;4983129;28;20201;-63
2021/07/05 11:56:59;;;;;;;1.20;1.00;;;24.30;59.40;;;;;;4982447;28;20215;-62
2021/07/05 11:59:30;;;;;;;2.10;1.23;;;24.30;59.00;;;;;;4984271;28;20203;-61
2021/07/05 12:01:56;;;;;;;3.13;1.50;;;24.30;59.00;;;;;;4984234;28;20211;-62
2021/07/05 12:04:35;;;;;;;1.97;1.27;;;24.30;58.50;;;;;;4983251;28;20228;-63
2021/07/05 12:07:08;;;;;;;4.27;1.60;;;24.30;58.60;;;;;;4983303;28;20204;-61
2021/07/05 12:09:37;;;;;;;4.77;1.50;;;24.30;58.90;;;;;;4976852;28;20239;-61
2021/07/05 12:12:20;;;;;;;2.77;1.50;;;24.20;58.60;;;;;;4985526;28;20200;-61
2021/07/05 12:14:48;;;;;;;3.07;1.70;;;24.20;58.50;;;;;;4984319;28;20618;-61
2021/07/05 12:17:16;;;;;;;3.17;1.53;;;24.20;58.60;;;;;;4983384;28;20400;-62
2021/07/05 12:19:46;;;;;;;2.90;1.73;;;24.20;58.70;;;;;;4980620;28;20803;-62
2021/07/05 12:22:19;;;;;;;2.17;1.50;;;24.20;58.70;;;;;;4986058;28;20208;-62
2021/07/05 12:24:53;;;;;;;3.30;1.77;;;24.10;58.80;;;;;;4985087;28;20196;-62
2021/07/05 12:27:22;;;;;;;3.10;1.80;;;24.10;58.90;;;;;;4986463;28;20206;-64
2021/07/05 12:29:54;;;;;;;3.57;1.77;;;24.10;58.70;;;;;;4987030;28;20208;-64
2021/07/05 12:32:33;;;;;;;2.20;1.47;;;24.10;59.30;;;;;;4985522;28;20574;-62
2021/07/05 12:35:11;;;;;;;3.50;1.77;;;24.10;59.80;;;;;;4985732;28;20549;-61
2021/07/05 12:37:54;;;;;;;4.27;1.60;;;24.10;60.20;;;;;;4982399;28;20225;-63
2021/07/05 12:40:29;;;;;;;1.90;1.40;;;24.10;60.60;;;;;;4983506;28;20212;-62
2021/07/05 12:43:04;;;;;;;1.77;1.40;;;24.10;60.90;;;;;;4987303;28;20812;-61
2021/07/05 12:45:35;;;;;;;3.33;1.47;;;24.10;61.00;;;;;;4980790;28;20208;-61
2021/07/05 12:48:13;;;;;;;2.47;1.40;;;24.10;61.20;;;;;;4981055;28;20200;-61
2021/07/05 12:50:45;;;;;;;1.97;1.67;;;24.10;61.50;;;;;;4987458;28;20232;-63
2021/07/05 12:53:25;;;;;;;2.13;1.83;;;24.10;61.50;;;;;;4989908;28;20641;-62
2021/07/05 12:55:59;;;;;;;3.33;1.90;;;24.10;61.70;;;;;;4987700;28;20583;-61
2021/07/05 12:58:35;;;;;;;3.10;1.63;;;24.10;61.90;;;;;;4994230;28;20204;-61
2021/07/05 13:01:11;;;;;;;2.57;1.50;;;24.10;62.00;;;;;;4987759;28;20222;-63
2021/07/05 13:03:53;;;;;;;3.10;1.20;;;24.10;62.00;;;;;;4982159;28;20224;-64
2021/07/05 13:06:22;;;;;;;3.07;1.50;;;24.10;62.00;;;;;;4989134;28;20216;-64
2021/07/05 13:09:08;;;;;;;2.30;1.37;;;24.10;62.40;;;;;;4992593;28;20204;-64